createdAt,value
2022-09-07T00:01:19.455Z,13.23
2022-09-07T00:03:47.900Z,13.22
2022-09-07T00:06:16.178Z,13.21
2022-09-07T00:08:44.597Z,13.19
2022-09-07T00:11:16.212Z,13.17
2022-09-07T00:13:47.013Z,13.16
2022-09-07T00:16:18.834Z,13.15
2022-09-07T00:18:48.092Z,13.15
2022-09-07T00:21:18.160Z,13.13
2022-09-07T00:23:49.292Z,13.10
2022-09-07T00:26:21.261Z,13.07
2022-09-07T00:28:50.409Z,13.04
2022-09-07T00:31:21.534Z,13.03
2022-09-07T00:33:51.454Z,13.02
2022-09-07T00:36:21.366Z,13.01
2022-09-07T00:38:49.536Z,12.98
2022-09-07T00:41:19.667Z,12.94
2022-09-07T00:43:50.734Z,12.93
2022-09-07T00:46:22.722Z,12.90
2022-09-07T00:49:08.357Z,12.87
2022-09-07T00:52:00.084Z,12.86
2022-09-07T00:54:36.662Z,12.84
2022-09-07T00:57:05.974Z,12.83
2022-09-07T00:59:45.216Z,12.83
2022-09-07T01:02:15.940Z,12.84
2022-09-07T01:04:48.578Z,12.84
2022-09-07T01:07:17.508Z,12.83
2022-09-07T01:09:47.472Z,12.82
2022-09-07T01:12:15.729Z,12.80
2022-09-07T01:14:47.522Z,12.76
2022-09-07T01:17:26.274Z,12.76
2022-09-07T01:20:20.978Z,12.74
2022-09-07T01:23:30.587Z,12.73
2022-09-07T01:26:05.071Z,12.71
2022-09-07T01:28:35.611Z,12.70
2022-09-07T01:31:13.927Z,12.70
2022-09-07T01:33:42.265Z,12.68
2022-09-07T01:36:34.131Z,12.67
2022-09-07T01:39:05.040Z,12.65
2022-09-07T01:42:07.276Z,12.63
2022-09-07T01:44:55.448Z,12.62
2022-09-07T01:47:27.513Z,12.61
2022-09-07T01:50:05.362Z,12.60
2022-09-07T01:52:43.594Z,12.58
2022-09-07T01:55:50.122Z,12.56
2022-09-07T01:58:26.933Z,12.55
2022-09-07T02:01:02.053Z,12.55
2022-09-07T02:03:42.589Z,12.55
2022-09-07T02:06:27.383Z,12.53
2022-09-07T02:09:07.635Z,12.52
2022-09-07T02:11:39.758Z,12.50
2022-09-07T02:14:31.346Z,12.48
2022-09-07T02:17:11.229Z,12.45
2022-09-07T02:19:45.398Z,12.44
2022-09-07T02:22:20.441Z,12.43
2022-09-07T02:24:53.200Z,12.41
2022-09-07T02:27:50.384Z,12.40
2022-09-07T02:30:18.810Z,12.39
2022-09-07T02:32:47.119Z,12.37
2022-09-07T02:35:15.735Z,12.35
2022-09-07T02:37:45.721Z,12.34
2022-09-07T02:40:14.988Z,12.31
2022-09-07T02:42:47.575Z,12.30
2022-09-07T02:45:17.041Z,12.27
2022-09-07T02:48:15.004Z,12.25
2022-09-07T02:51:24.162Z,12.20
2022-09-07T02:54:14.169Z,12.17
2022-09-07T02:57:17.999Z,12.14
2022-09-07T03:00:07.561Z,12.10
2022-09-07T03:02:45.683Z,12.07
2022-09-07T03:05:42.865Z,12.05
2022-09-07T03:08:16.226Z,12.04
2022-09-07T03:10:45.297Z,12.02
2022-09-07T03:13:28.205Z,12.03
2022-09-07T03:15:57.732Z,12.01
2022-09-07T03:18:27.534Z,12.03
2022-09-07T03:20:56.055Z,12.05
2022-09-07T03:23:25.015Z,12.05
2022-09-07T03:25:53.303Z,12.06
2022-09-07T03:28:21.580Z,12.06
2022-09-07T03:30:50.231Z,12.04
2022-09-07T03:33:18.531Z,12.01
2022-09-07T03:35:58.327Z,12.00
2022-09-07T03:38:26.658Z,11.97
2022-09-07T03:41:02.444Z,11.92
2022-09-07T03:43:31.313Z,11.91
2022-09-07T03:46:05.930Z,11.88
2022-09-07T03:48:35.443Z,11.86
2022-09-07T03:51:06.734Z,11.83
2022-09-07T03:53:39.878Z,11.79
2022-09-07T03:56:11.269Z,11.77
2022-09-07T03:58:39.715Z,11.74
2022-09-07T04:01:11.582Z,11.72
2022-09-07T04:03:40.021Z,11.69
2022-09-07T04:06:08.749Z,11.68
2022-09-07T04:08:38.324Z,11.65
2022-09-07T04:11:07.450Z,11.63
2022-09-07T04:13:36.842Z,11.58
2022-09-07T04:16:12.566Z,11.57
2022-09-07T04:18:41.753Z,11.55
2022-09-07T04:21:10.542Z,11.56
2022-09-07T04:23:43.821Z,11.58
2022-09-07T04:26:21.657Z,11.60
2022-09-07T04:28:51.117Z,11.62
2022-09-07T04:31:20.369Z,11.64
2022-09-07T04:33:49.997Z,11.64
2022-09-07T04:36:19.998Z,11.63
2022-09-07T04:38:57.977Z,11.63
2022-09-07T04:41:28.192Z,11.62
2022-09-07T04:43:59.033Z,11.60
2022-09-07T04:46:30.246Z,11.58
2022-09-07T04:49:00.840Z,11.55
2022-09-07T04:51:30.909Z,11.52
2022-09-07T04:54:02.030Z,11.51
2022-09-07T04:56:32.131Z,11.51
2022-09-07T04:59:02.212Z,11.51
2022-09-07T05:01:31.396Z,11.50
2022-09-07T05:04:01.447Z,11.49
2022-09-07T05:06:29.995Z,11.48
2022-09-07T05:08:58.965Z,11.48
2022-09-07T05:11:29.717Z,11.49
2022-09-07T05:14:00.005Z,11.51
2022-09-07T05:16:28.517Z,11.53
2022-09-07T05:19:02.253Z,11.55
2022-09-07T05:21:33.940Z,11.59
2022-09-07T05:24:03.150Z,11.62
2022-09-07T05:26:34.135Z,11.63
2022-09-07T05:31:54.936Z,11.67
2022-09-07T05:34:31.576Z,11.68
2022-09-07T05:37:01.387Z,11.69
2022-09-07T05:39:31.061Z,11.70
2022-09-07T05:41:59.434Z,11.69
2022-09-07T05:47:11.307Z,11.70
2022-09-07T05:49:39.725Z,11.71
2022-09-07T05:52:08.259Z,11.73
2022-09-07T05:54:38.345Z,11.75
2022-09-07T05:57:13.689Z,11.78
2022-09-07T05:59:42.142Z,11.80
2022-09-07T06:02:17.726Z,11.83
2022-09-07T06:04:46.127Z,11.89
2022-09-07T06:07:22.965Z,11.94
2022-09-07T06:12:41.701Z,12.04
2022-09-07T06:15:11.835Z,12.09
2022-09-07T06:17:40.444Z,12.15
2022-09-07T06:20:09.486Z,12.19
2022-09-07T06:22:38.368Z,12.24
2022-09-07T06:25:06.984Z,12.29
2022-09-07T06:27:35.423Z,12.35
2022-09-07T06:30:04.752Z,12.41
2022-09-07T06:32:44.635Z,12.49
2022-09-07T06:35:14.999Z,12.55
2022-09-07T06:37:43.184Z,12.62
2022-09-07T06:40:12.409Z,12.68
2022-09-07T06:42:40.866Z,12.76
2022-09-07T06:45:11.631Z,12.81
2022-09-07T06:47:41.111Z,12.89
2022-09-07T06:50:10.303Z,12.98
2022-09-07T06:55:31.124Z,13.15
2022-09-07T06:57:59.370Z,13.25
2022-09-07T07:00:27.743Z,13.34
2022-09-07T07:02:56.289Z,13.43
2022-09-07T07:05:24.662Z,13.52
2022-09-07T07:07:53.016Z,13.61
2022-09-07T07:10:24.752Z,13.71
2022-09-07T07:12:57.825Z,13.80
2022-09-07T07:15:28.416Z,13.90
2022-09-07T07:18:02.556Z,13.98
2022-09-07T07:20:39.864Z,14.09
2022-09-07T07:23:08.793Z,14.18
2022-09-07T07:25:37.553Z,14.28
2022-09-07T07:30:56.440Z,14.53
2022-09-07T07:33:25.415Z,14.65
2022-09-07T07:35:53.692Z,14.76
2022-09-07T07:44:00.621Z,15.06
2022-09-07T07:46:30.484Z,15.13
2022-09-07T07:48:59.194Z,15.21
2022-09-07T07:51:27.605Z,15.29
2022-09-07T07:53:56.828Z,15.35
2022-09-07T07:56:25.370Z,15.43
2022-09-07T07:58:53.749Z,15.51
2022-09-07T08:01:22.140Z,15.57
2022-09-07T08:03:51.064Z,15.65
2022-09-07T08:06:21.853Z,15.74
2022-09-07T08:08:50.137Z,15.83
2022-09-07T08:11:20.908Z,15.91
2022-09-07T08:13:51.177Z,15.98
2022-09-07T08:16:19.811Z,16.03
2022-09-07T08:18:49.372Z,16.09
2022-09-07T08:21:17.799Z,16.16
2022-09-07T08:23:46.116Z,16.21
2022-09-07T08:26:14.371Z,16.27
2022-09-07T08:28:45.641Z,16.33
2022-09-07T08:31:16.383Z,16.39
2022-09-07T08:33:45.744Z,16.45
2022-09-07T08:36:19.391Z,16.52
2022-09-07T08:38:48.434Z,16.58
2022-09-07T08:41:46.651Z,16.66
2022-09-07T08:44:29.997Z,16.76
2022-09-07T08:47:07.078Z,16.89
2022-09-07T08:49:47.386Z,16.99
2022-09-07T08:52:27.840Z,17.07
2022-09-07T08:55:28.152Z,17.15
2022-09-07T08:58:02.192Z,17.23
2022-09-07T09:00:31.679Z,17.29
2022-09-07T09:05:53.802Z,17.36
2022-09-07T09:08:48.174Z,17.40
2022-09-07T09:11:27.564Z,17.44
2022-09-07T09:13:55.820Z,17.47
2022-09-07T09:16:27.063Z,17.51
2022-09-07T09:18:55.260Z,17.57
2022-09-07T09:21:23.683Z,17.62
2022-09-07T09:23:55.407Z,17.66
2022-09-07T09:26:26.165Z,17.70
2022-09-07T09:28:55.366Z,17.75
2022-09-07T09:31:36.277Z,17.80
2022-09-07T09:34:15.161Z,17.84
2022-09-07T09:36:56.419Z,17.86
2022-09-07T09:39:31.093Z,17.87
2022-09-07T09:42:15.822Z,17.89
2022-09-07T09:44:45.707Z,17.92
2022-09-07T09:47:40.749Z,17.95
2022-09-07T09:53:49.225Z,18.00
2022-09-07T09:56:18.329Z,18.03
2022-09-07T10:01:36.866Z,18.15
2022-09-07T10:04:24.775Z,18.22
2022-09-07T10:07:22.760Z,18.30
2022-09-07T10:09:53.263Z,18.41
2022-09-07T10:12:34.778Z,18.49
2022-09-07T10:15:07.023Z,18.57
2022-09-07T10:17:43.861Z,18.63
2022-09-07T10:20:15.996Z,18.70
2022-09-07T10:22:51.304Z,18.75
2022-09-07T10:25:38.101Z,18.82
2022-09-07T10:28:13.024Z,18.90
2022-09-07T10:31:02.572Z,19.01
2022-09-07T10:37:22.150Z,19.28
2022-09-07T10:40:10.076Z,19.39
2022-09-07T10:45:45.786Z,19.64
2022-09-07T10:48:20.872Z,19.73
2022-09-07T10:50:57.400Z,19.82
2022-09-07T10:53:42.066Z,19.94
2022-09-07T10:56:15.626Z,20.01
2022-09-07T10:59:03.059Z,20.10
2022-09-07T11:01:40.878Z,20.18
2022-09-07T11:04:37.228Z,20.24
2022-09-07T11:07:15.901Z,20.32
2022-09-07T11:10:30.241Z,20.37
2022-09-07T11:13:04.907Z,20.39
2022-09-07T11:15:43.174Z,20.41
2022-09-07T11:18:41.349Z,20.46
2022-09-07T11:21:56.271Z,20.51
2022-09-07T11:24:19.674Z,20.56
2022-09-07T11:27:14.500Z,20.63
2022-09-07T11:29:55.486Z,20.66
2022-09-07T11:32:31.557Z,20.68
2022-09-07T11:35:25.253Z,20.71
2022-09-07T11:37:59.684Z,20.71
2022-09-07T11:40:30.864Z,20.75
2022-09-07T11:43:22.741Z,20.82
2022-09-07T11:46:21.466Z,20.87
2022-09-07T11:48:55.001Z,20.94
2022-09-07T11:51:53.731Z,21.00
2022-09-07T11:54:42.480Z,21.06
2022-09-07T11:57:46.394Z,21.12
2022-09-07T12:00:21.893Z,21.14
2022-09-07T12:03:04.582Z,21.16
2022-09-07T12:05:44.819Z,21.20
2022-09-07T12:08:30.009Z,21.27
2022-09-07T12:11:10.328Z,21.32
2022-09-07T12:13:57.157Z,21.35
2022-09-07T12:17:02.243Z,21.39
2022-09-07T12:19:30.832Z,21.44
2022-09-07T12:22:00.051Z,21.47
2022-09-07T12:24:43.425Z,21.53
2022-09-07T12:27:20.628Z,21.56
2022-09-07T12:30:09.862Z,21.56
2022-09-07T12:32:55.826Z,21.57
2022-09-07T12:35:31.728Z,21.58
2022-09-07T12:38:01.735Z,21.58
2022-09-07T12:40:30.002Z,21.58
2022-09-07T12:43:13.295Z,21.59
2022-09-07T12:45:42.216Z,21.57
2022-09-07T12:48:16.263Z,21.55
2022-09-07T12:51:12.360Z,21.58
2022-09-07T12:54:08.699Z,21.62
2022-09-07T12:56:43.119Z,21.63
2022-09-07T12:59:32.852Z,21.62
2022-09-07T13:02:27.919Z,21.63
2022-09-07T13:05:34.880Z,21.50
2022-09-07T13:08:40.623Z,21.39
2022-09-07T13:11:38.341Z,21.40
2022-09-07T13:14:17.362Z,21.40
2022-09-07T13:19:52.067Z,21.32
2022-09-07T13:22:32.392Z,21.26
2022-09-07T13:25:27.308Z,21.19
2022-09-07T13:28:14.224Z,21.16
2022-09-07T13:31:01.194Z,21.13
2022-09-07T13:33:29.782Z,21.08
2022-09-07T13:36:40.381Z,21.10
2022-09-07T13:39:15.355Z,21.17
2022-09-07T13:41:50.541Z,21.21
2022-09-07T13:44:39.237Z,21.26
2022-09-07T13:47:35.002Z,21.31
2022-09-07T13:50:12.258Z,21.35
2022-09-07T13:53:12.396Z,21.39
2022-09-07T13:56:15.820Z,21.43
2022-09-07T13:58:49.908Z,21.42
2022-09-07T14:01:29.140Z,21.38
2022-09-07T14:04:07.804Z,21.33
2022-09-07T14:06:38.085Z,21.28
2022-09-07T14:09:13.632Z,21.31
2022-09-07T14:11:46.423Z,21.34
2022-09-07T14:14:33.353Z,21.36
2022-09-07T14:17:01.931Z,21.38
2022-09-07T14:19:49.526Z,21.34
2022-09-07T14:22:26.250Z,21.31
2022-09-07T14:24:59.735Z,21.26
2022-09-07T14:27:42.443Z,21.25
2022-09-07T14:30:23.436Z,21.21
2022-09-07T14:33:20.434Z,21.19
2022-09-07T14:35:49.986Z,21.13
2022-09-07T14:41:15.698Z,21.06
2022-09-07T14:43:55.507Z,21.07
2022-09-07T14:46:26.136Z,21.06
2022-09-07T14:48:59.880Z,21.05
2022-09-07T14:51:36.174Z,21.05
2022-09-07T14:54:07.188Z,21.04
2022-09-07T14:56:41.094Z,21.00
2022-09-07T14:59:34.960Z,20.97
2022-09-07T15:02:18.589Z,20.98
2022-09-07T15:05:08.212Z,20.96
2022-09-07T15:07:47.168Z,20.95
2022-09-07T15:10:16.658Z,20.94
2022-09-07T15:12:44.989Z,20.94
2022-09-07T15:15:21.860Z,20.95
2022-09-07T15:17:51.828Z,20.93
2022-09-07T15:20:37.873Z,20.93
2022-09-07T15:23:17.110Z,20.93
2022-09-07T15:25:51.871Z,20.94
2022-09-07T15:34:02.375Z,20.95
2022-09-07T15:36:31.948Z,20.92
2022-09-07T15:39:01.099Z,20.87
2022-09-07T15:41:30.311Z,20.84
2022-09-07T15:43:59.081Z,20.81
2022-09-07T15:46:27.622Z,20.79
2022-09-07T15:48:56.394Z,20.78
2022-09-07T15:54:14.844Z,20.72
2022-09-07T15:57:47.661Z,20.69
2022-09-07T15:59:32.457Z,20.66
2022-09-07T16:02:00.995Z,20.63
2022-09-07T16:04:29.662Z,20.59
2022-09-07T16:07:01.997Z,20.55
2022-09-07T16:09:30.320Z,20.52
2022-09-07T16:12:59.931Z,20.49
2022-09-07T16:14:47.344Z,20.45
2022-09-07T16:20:04.678Z,20.39
2022-09-07T16:25:22.873Z,20.34
2022-09-07T16:27:51.173Z,20.31
2022-09-07T16:30:19.385Z,20.27
2022-09-07T16:32:48.290Z,20.23
2022-09-07T16:35:17.509Z,20.22
2022-09-07T16:40:34.234Z,20.17
2022-09-07T16:43:02.449Z,20.15
2022-09-07T16:48:20.229Z,20.08
2022-09-07T16:51:00.448Z,20.04
2022-09-07T16:53:34.662Z,20.00
2022-09-07T16:56:05.296Z,19.97
2022-09-07T16:58:36.421Z,19.92
2022-09-07T17:01:06.945Z,19.88
2022-09-07T17:03:36.876Z,19.83
2022-09-07T17:06:07.803Z,19.78
2022-09-07T17:08:37.832Z,19.73
2022-09-07T17:11:15.949Z,19.68
2022-09-07T17:13:45.407Z,19.62
2022-09-07T17:16:15.374Z,19.55
2022-09-07T17:21:33.982Z,19.39
2022-09-07T17:24:04.207Z,19.35
2022-09-07T17:26:33.203Z,19.32
2022-09-07T17:29:01.567Z,19.30
2022-09-07T17:34:21.609Z,19.23
2022-09-07T17:36:51.338Z,19.19
2022-09-07T17:39:20.104Z,19.15
2022-09-07T17:41:52.695Z,19.10
2022-09-07T17:44:23.461Z,19.07
2022-09-07T17:46:52.049Z,19.07
2022-09-07T17:49:20.346Z,19.07
2022-09-07T17:51:48.808Z,19.06
2022-09-07T17:54:17.859Z,19.03
2022-09-07T17:56:46.507Z,18.99
2022-09-07T18:02:03.557Z,18.89
2022-09-07T18:04:31.952Z,18.85
2022-09-07T18:07:00.249Z,18.79
2022-09-07T18:09:28.801Z,18.72
2022-09-07T18:11:57.277Z,18.67
2022-09-07T18:14:25.641Z,18.64
2022-09-07T18:16:54.153Z,18.62
2022-09-07T18:19:24.909Z,18.58
2022-09-07T18:21:58.467Z,18.53
2022-09-07T18:24:27.975Z,18.48
2022-09-07T18:27:07.848Z,18.43
2022-09-07T18:29:36.488Z,18.39
2022-09-07T18:32:09.364Z,18.36
2022-09-07T18:34:41.157Z,18.34
2022-09-07T18:37:12.312Z,18.31
2022-09-07T18:39:41.336Z,18.30
2022-09-07T18:42:10.275Z,18.28
2022-09-07T18:47:29.222Z,18.29
2022-09-07T18:49:58.692Z,18.29
2022-09-07T18:55:16.466Z,18.25
2022-09-07T18:57:45.170Z,18.22
2022-09-07T19:00:14.601Z,18.20
2022-09-07T19:02:42.844Z,18.17
2022-09-07T19:08:00.031Z,18.10
2022-09-07T19:10:28.303Z,18.07
2022-09-07T19:12:56.872Z,18.04
2022-09-07T19:15:25.670Z,18.02
2022-09-07T19:17:54.102Z,18.01
2022-09-07T19:20:22.455Z,17.99
2022-09-07T19:22:50.950Z,17.97
2022-09-07T19:25:19.584Z,17.95
2022-09-07T19:27:48.051Z,17.92
2022-09-07T19:30:18.043Z,17.89
2022-09-07T19:32:46.434Z,17.86
2022-09-07T19:35:17.942Z,17.82
2022-09-07T19:37:48.447Z,17.79
2022-09-07T19:40:19.267Z,17.77
2022-09-07T19:42:48.197Z,17.73
2022-09-07T19:45:16.768Z,17.69
2022-09-07T19:47:45.078Z,17.66
2022-09-07T19:50:13.414Z,17.65
2022-09-07T19:52:41.971Z,17.62
2022-09-07T19:55:10.361Z,17.60
2022-09-07T19:57:38.729Z,17.58
2022-09-07T20:00:07.914Z,17.57
2022-09-07T20:02:39.090Z,17.56
2022-09-07T20:05:10.150Z,17.54
2022-09-07T20:07:52.486Z,17.53
2022-09-07T20:10:20.883Z,17.51
2022-09-07T20:12:49.349Z,17.49
2022-09-07T20:15:17.677Z,17.46
2022-09-07T20:17:47.520Z,17.44
2022-09-07T20:20:18.353Z,17.42
2022-09-07T20:22:47.299Z,17.38
2022-09-07T20:25:15.733Z,17.32
2022-09-07T20:27:44.697Z,17.29
2022-09-07T20:30:13.440Z,17.26
2022-09-07T20:32:44.406Z,17.25
2022-09-07T20:35:14.092Z,17.23
2022-09-07T20:37:44.149Z,17.22
2022-09-07T20:40:12.534Z,17.19
2022-09-07T20:42:40.941Z,17.17
2022-09-07T20:45:09.769Z,17.15
2022-09-07T20:47:38.193Z,17.13
2022-09-07T20:50:06.862Z,17.11
2022-09-07T20:52:35.157Z,17.10
2022-09-07T20:55:03.655Z,17.09
2022-09-07T20:57:31.999Z,17.07
2022-09-07T21:00:00.271Z,17.06
2022-09-07T21:02:28.556Z,17.04
2022-09-07T21:04:56.934Z,17.01
2022-09-07T21:07:25.204Z,17.00
2022-09-07T21:09:53.435Z,16.99
2022-09-07T21:12:24.519Z,16.97
2022-09-07T21:14:52.856Z,16.95
2022-09-07T21:17:21.285Z,16.92
2022-09-07T21:19:49.591Z,16.89
2022-09-07T21:22:17.969Z,16.87
2022-09-07T21:24:46.274Z,16.83
2022-09-07T21:27:14.579Z,16.81
2022-09-07T21:29:42.900Z,16.79
2022-09-07T21:32:11.104Z,16.77
2022-09-07T21:34:39.409Z,16.76
2022-09-07T21:37:07.699Z,16.74
2022-09-07T21:39:36.010Z,16.73
2022-09-07T21:42:04.735Z,16.72
2022-09-07T21:44:33.043Z,16.70
2022-09-07T21:47:01.312Z,16.70
2022-09-07T21:49:29.696Z,16.69
2022-09-07T21:51:57.982Z,16.67
2022-09-07T21:54:26.249Z,16.65
2022-09-07T21:56:54.927Z,16.63
2022-09-07T21:59:23.269Z,16.62
2022-09-07T22:01:51.537Z,16.61
2022-09-07T22:04:19.916Z,16.58
2022-09-07T22:06:48.306Z,16.53
2022-09-07T22:09:16.841Z,16.49
2022-09-07T22:11:46.141Z,16.46
2022-09-07T22:14:15.954Z,16.43
2022-09-07T22:16:44.498Z,16.37
2022-09-07T22:19:13.258Z,16.32
2022-09-07T22:21:41.589Z,16.28
2022-09-07T22:24:11.868Z,16.24
2022-09-07T22:26:40.119Z,16.18
2022-09-07T22:29:11.842Z,16.13
2022-09-07T22:31:41.543Z,16.09
2022-09-07T22:34:10.707Z,16.07
2022-09-07T22:36:42.256Z,16.05
2022-09-07T22:39:17.088Z,16.01
2022-09-07T22:41:47.437Z,15.97
2022-09-07T22:44:18.504Z,15.94
2022-09-07T22:46:48.356Z,15.91
2022-09-07T22:49:17.731Z,15.86
2022-09-07T22:51:46.423Z,15.81
2022-09-07T22:54:14.865Z,15.76
2022-09-07T22:56:43.395Z,15.72
2022-09-07T22:59:12.909Z,15.69
2022-09-07T23:01:41.909Z,15.67
2022-09-07T23:04:11.340Z,15.66
2022-09-07T23:06:42.068Z,15.65
2022-09-07T23:09:14.086Z,15.63
2022-09-07T23:11:43.404Z,15.60
2022-09-07T23:14:15.352Z,15.57
2022-09-07T23:16:44.684Z,15.56
2022-09-07T23:19:14.276Z,15.57
2022-09-07T23:21:43.443Z,15.53
2022-09-07T23:24:13.640Z,15.44
2022-09-07T23:26:42.695Z,15.34
2022-09-07T23:29:12.978Z,15.28
2022-09-07T23:31:42.188Z,15.23
2022-09-07T23:34:10.474Z,15.21
2022-09-07T23:36:38.977Z,15.19
2022-09-07T23:39:07.649Z,15.17
2022-09-07T23:41:35.805Z,15.17
2022-09-07T23:44:04.094Z,15.16
2022-09-07T23:46:32.407Z,15.13
2022-09-07T23:49:00.678Z,15.09
2022-09-07T23:51:28.887Z,15.05
2022-09-07T23:53:57.739Z,14.99
2022-09-07T23:56:26.398Z,14.96
2022-09-07T23:58:54.657Z,14.93
